Time;durP1;ratioP1;P1;durP2;ratioP2;P2;SDS_P1;SDS_P2;PMS_P1;PMS_P2;Temp;Humidity;BMP_temperature;BMP_pressure;BME280_temperature;BME280_humidity;BME280_pressure;Samples;Min_cycle;Max_cycle;Signal;HPM_P1;HPM_P2
2021/09/22 00:00:52;;;;;;;;;29.50;26.25;;;;;16.86;100.00;102703.75;5001762;28;45506;-71
2021/09/22 00:03:18;;;;;;;;;37.00;27.00;;;;;16.78;100.00;102686.25;5019353;28;45486;-72
2021/09/22 00:05:43;;;;;;;;;27.25;23.50;;;;;16.76;100.00;102698.56;5019331;28;45364;-72
2021/09/22 00:11:30;;;;;;;;;35.75;30.25;;;;;16.74;100.00;102699.44;5019180;28;45457;-71
2021/09/22 00:13:56;;;;;;;;;34.75;26.75;;;;;16.61;100.00;102680.19;5018875;28;47076;-72
2021/09/22 00:16:21;;;;;;;;;37.00;28.75;;;;;16.67;100.00;102706.53;5019077;28;45384;-72
2021/09/22 00:18:47;;;;;;;;;33.25;28.00;;;;;16.67;100.00;102698.63;5019053;28;45325;-72
2021/09/22 00:21:12;;;;;;;;;31.00;26.25;;;;;16.66;100.00;102694.25;5019019;28;45422;-72
2021/09/22 00:23:37;;;;;;;;;33.00;30.25;;;;;16.58;100.00;102679.34;5018812;28;46462;-71
2021/09/22 00:26:04;;;;;;;;;33.00;30.50;;;;;16.63;100.00;102688.97;5018563;28;45266;-72
2021/09/22 00:28:29;;;;;;;;;31.75;31.00;;;;;16.61;100.00;102693.38;5018555;28;45239;-72
2021/09/22 00:30:55;;;;;;;;;38.00;32.75;;;;;16.51;100.00;102699.59;5019215;28;45371;-72
2021/09/22 00:33:20;;;;;;;;;37.50;32.25;;;;;16.48;100.00;102694.34;5018512;28;46159;-72
2021/09/22 00:35:46;;;;;;;;;35.00;29.75;;;;;16.29;100.00;102674.28;5018654;28;45291;-72
2021/09/22 00:41:32;;;;;;;;;38.25;30.50;;;;;16.33;100.00;102670.75;5018676;28;45385;-72
2021/09/22 00:43:57;;;;;;;;;40.50;30.75;;;;;16.30;100.00;102676.94;5018273;28;46172;-72
2021/09/22 00:46:23;;;;;;;;;27.75;26.75;;;;;16.31;100.00;102676.03;5018456;28;45283;-72
2021/09/22 00:48:49;;;;;;;;;39.75;34.75;;;;;16.26;100.00;102677.81;5018646;28;45359;-72
2021/09/22 00:51:14;;;;;;;;;40.00;32.50;;;;;16.19;100.00;102679.63;5018827;28;45212;-72
2021/09/22 00:53:39;;;;;;;;;41.75;33.75;;;;;16.11;100.00;102665.63;5017947;28;46481;-72
2021/09/22 00:56:06;;;;;;;;;34.00;30.50;;;;;16.17;100.00;102681.38;5018108;28;45384;-72
2021/09/22 00:58:32;;;;;;;;;36.75;32.75;;;;;16.16;100.00;102686.69;5018319;28;45345;-72
2021/09/22 01:00:59;;;;;;;;;30.75;27.50;;;;;16.07;100.00;102666.53;5018876;28;45364;-71
2021/09/22 01:03:25;;;;;;;;;36.75;32.50;;;;;16.16;100.00;102673.50;5018157;28;45391;-72
2021/09/22 01:05:53;;;;;;;;;35.75;30.50;;;;;16.12;100.00;102670.00;5018317;28;45382;-72
2021/09/22 01:11:40;;;;;;;;;45.25;29.75;;;;;16.07;100.00;102658.63;5018237;28;45452;-72
2021/09/22 01:14:07;;;;;;;;;32.75;28.75;;;;;16.07;100.00;102665.63;5018080;28;46252;-73
2021/09/22 01:16:43;;;;;;;;;41.75;32.00;;;;;15.96;100.00;102659.56;5018383;28;45404;-72
2021/09/22 01:19:09;;;;;;;;;24.25;20.25;;;;;16.01;100.00;102673.59;5018014;28;45432;-72
2021/09/22 01:21:35;;;;;;;;;32.75;29.50;;;;;15.89;100.00;102659.59;5018464;28;45298;-71
2021/09/22 01:24:00;;;;;;;;;39.50;31.75;;;;;15.75;100.00;102634.22;5018138;28;45323;-71
2021/09/22 01:26:26;;;;;;;;;34.50;30.00;;;;;15.66;100.00;102623.75;5017664;28;45313;-72
2021/09/22 01:28:51;;;;;;;;;33.75;29.50;;;;;15.78;100.00;102652.63;5018086;28;45356;-72
2021/09/22 01:31:17;;;;;;;;;34.75;29.25;;;;;15.79;100.00;102655.25;5017720;28;45441;-71
2021/09/22 01:33:43;;;;;;;;;32.25;29.50;;;;;15.72;100.00;102658.81;5017646;28;46040;-71
2021/09/22 01:36:13;;;;;;;;;33.25;30.50;;;;;15.72;100.00;102666.72;5017790;28;45922;-72
2021/09/22 01:42:00;;;;;;;;;33.25;30.00;;;;;15.68;100.00;102677.28;5017786;28;45471;-71
2021/09/22 01:44:25;;;;;;;;;36.50;33.00;;;;;15.59;100.00;102665.88;5017674;28;45357;-71
2021/09/22 01:46:50;;;;;;;;;39.50;30.25;;;;;15.60;100.00;102666.75;5017102;28;45342;-71
2021/09/22 01:49:23;;;;;;;;;38.50;33.25;;;;;15.56;100.00;102665.84;5017739;28;45414;-72
2021/09/22 01:51:55;;;;;;;;;36.25;32.50;;;;;15.51;100.00;102670.28;5017561;28;45310;-71
2021/09/22 01:54:20;;;;;;;;;37.00;32.50;;;;;15.49;100.00;102663.28;5017056;28;46337;-72
2021/09/22 01:56:46;;;;;;;;;34.25;30.50;;;;;15.48;100.00;102664.16;5017112;28;45353;-71
2021/09/22 01:59:11;;;;;;;;;36.50;33.00;;;;;15.49;100.00;102673.81;5017442;28;45361;-71
2021/09/22 02:01:36;;;;;;;;;30.75;28.00;;;;;15.42;100.00;102658.91;5017770;28;45273;-72
2021/09/22 02:04:02;;;;;;;;;41.00;31.75;;;;;15.39;100.00;102656.28;5017099;28;47046;-71
2021/09/22 02:06:27;;;;;;;;;35.25;32.25;;;;;15.37;100.00;102653.66;5016687;28;45333;-72
2021/09/22 02:12:14;;;;;;;;;40.75;33.50;;;;;15.39;100.00;102665.06;5017475;28;45358;-72
2021/09/22 02:14:39;;;;;;;;;35.25;31.25;;;;;15.37;100.00;102658.03;5017376;28;46492;-71
2021/09/22 02:17:05;;;;;;;;;35.50;28.75;;;;;15.33;100.00;102647.53;5016950;28;45367;-72
2021/09/22 02:19:30;;;;;;;;;36.75;30.25;;;;;15.38;100.00;102642.22;5017632;28;45435;-72
2021/09/22 02:21:56;;;;;;;;;33.00;31.75;;;;;15.38;100.00;102642.22;5017509;28;45420;-72
2021/09/22 02:24:21;;;;;;;;;32.50;30.00;;;;;15.40;100.00;102635.25;5017270;28;45258;-72
2021/09/22 02:26:48;;;;;;;;;39.25;33.00;;;;;15.34;100.00;102619.44;5016938;28;45328;-72
2021/09/22 02:29:14;;;;;;;;;38.50;34.25;;;;;15.31;100.00;102622.09;5016854;28;45332;-72
2021/09/22 02:31:40;;;;;;;;;39.25;30.25;;;;;15.23;100.00;102594.94;5017415;28;45334;-72
2021/09/22 02:34:05;;;;;;;;;35.25;28.50;;;;;15.30;100.00;102604.56;5017061;28;46825;-72
2021/09/22 02:36:30;;;;;;;;;33.75;24.50;;;;;15.38;100.00;102618.53;5016798;28;45401;-72
2021/09/22 02:42:17;;;;;;;;;39.25;32.50;;;;;15.34;100.00;102603.66;5017197;28;45355;-72
2021/09/22 02:44:43;;;;;;;;;43.50;34.75;;;;;15.37;100.00;102603.63;5016694;28;47040;-72
2021/09/22 02:47:08;;;;;;;;;34.50;31.00;;;;;15.34;100.00;102595.75;5016824;28;45521;-72
2021/09/22 02:49:34;;;;;;;;;30.75;28.25;;;;;15.30;100.00;102594.03;5016852;28;45345;-72
2021/09/22 02:51:59;;;;;;;;;41.50;32.50;;;;;15.07;100.00;102551.13;5018831;28;45385;-72
2021/09/22 02:57:47;;;;;;;;;39.75;33.00;;;;;15.23;100.00;102571.25;5018207;28;45370;-71
2021/09/22 03:00:13;;;;;;;;;37.50;29.50;;;;;15.23;100.00;102584.41;5020814;28;45214;-71
2021/09/22 03:02:39;;;;;;;;;36.00;30.25;;;;;15.24;100.00;102581.78;5020417;28;45444;-71
2021/09/22 03:05:06;;;;;;;;;38.75;32.25;;;;;15.23;100.00;102573.88;5020282;28;45369;-71
2021/09/22 03:07:31;;;;;;;;;36.50;27.50;;;;;15.27;100.00;102580.88;5019858;28;45686;-71
2021/09/22 03:09:56;;;;;;;;;32.50;28.25;;;;;15.25;100.00;102577.38;5020423;28;45326;-71
2021/09/22 03:12:22;;;;;;;;;35.50;30.00;;;;;15.17;100.00;102564.28;5019861;28;45416;-73
2021/09/22 03:14:47;;;;;;;;;35.25;30.75;;;;;15.24;100.00;102573.00;5019839;28;46560;-72
2021/09/22 03:17:12;;;;;;;;;42.25;34.50;;;;;15.20;100.00;102577.41;5019798;28;45291;-72
2021/09/22 03:19:38;;;;;;;;;37.75;33.50;;;;;15.21;100.00;102583.56;5020263;28;45340;-72
2021/09/22 03:22:03;;;;;;;;;34.50;30.25;;;;;15.15;100.00;102570.38;5019976;28;45245;-72
2021/09/22 03:27:51;;;;;;;;;38.00;32.25;;;;;15.16;100.00;102575.69;5019550;28;45366;-74
2021/09/22 03:30:17;;;;;;;;;39.00;31.00;;;;;15.15;100.00;102573.91;5019821;28;45367;-72
2021/09/22 03:32:42;;;;;;;;;33.75;30.00;;;;;15.05;100.00;102556.41;5019877;28;45342;-72
2021/09/22 03:35:09;;;;;;;;;44.50;30.75;;;;;14.94;100.00;102547.69;5019886;28;45333;-72
2021/09/22 03:37:34;;;;;;;;;39.50;31.75;;;;;15.05;100.00;102571.31;5019558;28;45838;-72
2021/09/22 03:39:59;;;;;;;;;34.75;31.50;;;;;14.98;100.00;102565.22;5019984;28;45290;-72
2021/09/22 03:42:25;;;;;;;;;40.00;31.50;;;;;15.02;100.00;102572.22;5019617;28;45549;-72
2021/09/22 03:44:50;;;;;;;;;36.25;27.25;;;;;15.02;100.00;102580.09;5019311;28;46604;-72
2021/09/22 03:47:16;;;;;;;;;37.75;33.50;;;;;14.82;100.00;102550.34;5019380;28;45417;-72
2021/09/22 03:49:41;;;;;;;;;36.25;32.50;;;;;14.92;100.00;102565.22;5019471;28;45242;-72
2021/09/22 03:52:07;;;;;;;;;38.25;30.25;;;;;14.83;100.00;102565.25;5019644;28;45485;-72
2021/09/22 03:57:54;;;;;;;;;37.75;28.00;;;;;14.78;100.00;102594.19;5018965;28;45298;-74
2021/09/22 04:00:19;;;;;;;;;37.50;31.50;;;;;14.74;100.00;102595.06;5019125;28;45295;-72
2021/09/22 04:02:45;;;;;;;;;36.75;30.50;;;;;14.67;100.00;102588.94;5019286;28;45189;-72
2021/09/22 04:05:10;;;;;;;;;48.25;34.00;;;;;14.63;100.00;102589.81;5019243;28;46472;-72
2021/09/22 04:07:36;;;;;;;;;35.50;29.50;;;;;14.61;100.00;102593.34;5019235;28;45254;-72
2021/09/22 04:13:23;;;;;;;;;36.00;28.75;;;;;14.57;100.00;102599.47;5019411;28;45374;-72
2021/09/22 04:15:48;;;;;;;;;36.25;32.00;;;;;14.48;100.00;102597.72;5018653;28;46563;-72
2021/09/22 04:18:13;;;;;;;;;35.00;29.25;;;;;14.48;100.00;102599.47;5019049;28;45271;-72
2021/09/22 04:20:39;;;;;;;;;35.00;31.50;;;;;14.59;100.00;102613.50;5019183;28;45370;-74
2021/09/22 04:23:04;;;;;;;;;45.75;28.50;;;;;14.58;100.00;102607.34;5019401;28;45357;-72
2021/09/22 04:25:30;;;;;;;;;36.50;33.00;;;;;14.53;100.00;102603.88;5018900;28;46483;-72
2021/09/22 04:27:55;;;;;;;;;39.75;32.75;;;;;14.53;100.00;102603.88;5019066;28;45274;-72
2021/09/22 04:30:21;;;;;;;;;35.25;32.25;;;;;14.48;100.00;102600.34;5018887;28;45227;-73
2021/09/22 04:32:46;;;;;;;;;44.00;36.00;;;;;14.54;100.00;102615.25;5018881;28;45274;-72
2021/09/22 04:35:11;;;;;;;;;44.75;34.00;;;;;14.56;100.00;102613.50;5018354;28;46060;-72
2021/09/22 04:37:39;;;;;;;;;33.00;31.25;;;;;14.51;100.00;102600.38;5018634;28;45397;-71
2021/09/22 04:43:26;;;;;;;;;32.50;26.50;;;;;14.46;100.00;102598.59;5018904;28;45327;-72
2021/09/22 04:45:52;;;;;;;;;41.50;31.00;;;;;14.41;100.00;102586.31;5018639;28;45502;-71
2021/09/22 04:48:17;;;;;;;;;43.25;34.00;;;;;14.41;100.00;102586.31;5018477;28;45204;-72
2021/09/22 04:50:42;;;;;;;;;38.75;29.00;;;;;14.46;100.00;102603.84;5018769;28;45874;-72
2021/09/22 04:53:08;;;;;;;;;35.75;26.50;;;;;14.46;100.00;102609.97;5018595;28;45426;-72
2021/09/22 04:55:33;;;;;;;;;32.75;27.75;;;;;14.30;100.00;102579.31;5018389;28;46269;-71
2021/09/22 04:57:59;;;;;;;;;34.50;30.25;;;;;14.43;100.00;102602.09;5018098;28;45362;-71
2021/09/22 05:00:24;;;;;;;;;33.50;30.00;;;;;14.42;100.00;102595.06;5018516;28;45360;-74
2021/09/22 05:02:49;;;;;;;;;35.00;27.75;;;;;14.44;100.00;102598.59;5018692;28;45286;-72
2021/09/22 05:05:15;;;;;;;;;32.75;29.00;;;;;14.50;100.00;102621.41;5018105;28;46171;-71
2021/09/22 05:07:41;;;;;;;;;40.00;33.25;;;;;14.43;100.00;102607.34;5018260;28;45357;-70
2021/09/22 05:13:28;;;;;;;;;38.50;29.25;;;;;14.46;100.00;102611.72;5017794;28;45269;-71
2021/09/22 05:15:53;;;;;;;;;45.00;34.00;;;;;14.47;100.00;102610.84;4999731;28;46580;-72
2021/09/22 05:18:19;;;;;;;;;35.50;31.50;;;;;14.48;100.00;102616.09;5018091;28;45383;-71
2021/09/22 05:20:44;;;;;;;;;44.25;33.75;;;;;14.49;100.00;102617.03;5018394;28;45392;-71
2021/09/22 05:23:10;;;;;;;;;40.00;30.50;;;;;14.46;100.00;102614.38;5018351;28;45381;-70
2021/09/22 05:28:57;;;;;;;;;44.50;34.00;;;;;14.34;100.00;102596.81;5017763;28;45778;-74
2021/09/22 05:31:22;;;;;;;;;38.00;32.50;;;;;14.39;100.00;102608.22;5017748;28;45306;-72
2021/09/22 05:33:48;;;;;;;;;40.00;33.25;;;;;14.33;100.00;102601.22;5017795;28;45211;-75
2021/09/22 05:36:13;;;;;;;;;37.75;32.75;;;;;14.33;100.00;102595.94;5017656;28;47212;-73
2021/09/22 05:38:38;;;;;;;;;37.00;33.75;;;;;14.40;100.00;102612.59;5017577;28;45319;-74
2021/09/22 05:41:04;;;;;;;;;39.50;33.75;;;;;14.35;100.00;102614.34;5017800;28;45442;-73
2021/09/22 05:43:29;;;;;;;;;41.75;33.25;;;;;14.32;100.00;102607.34;5018159;28;45277;-74
2021/09/22 05:45:55;;;;;;;;;40.25;33.25;;;;;14.35;100.00;102609.09;5017810;28;45273;-75
2021/09/22 05:48:20;;;;;;;;;36.00;33.50;;;;;14.33;100.00;102605.59;5017602;28;45324;-73
2021/09/22 05:50:46;;;;;;;;;42.50;33.75;;;;;14.36;100.00;102611.72;5017589;28;45497;-75
2021/09/22 05:53:11;;;;;;;;;37.25;33.50;;;;;14.37;100.00;102616.09;5017654;28;45492;-75
2021/09/22 05:58:57;;;;;;;;;44.50;33.25;;;;;14.38;100.00;102614.34;5015570;28;45426;-73
2021/09/22 06:01:23;;;;;;;;;35.50;33.75;;;;;14.41;100.00;102615.22;5017722;28;45273;-73
2021/09/22 06:03:48;;;;;;;;;39.00;30.75;;;;;14.47;100.00;102621.38;5017497;28;45358;-71
2021/09/22 06:06:13;;;;;;;;;38.50;34.25;;;;;14.51;100.00;102623.16;5017105;28;45321;-72
2021/09/22 06:08:39;;;;;;;;;40.75;34.00;;;;;14.53;100.00;102618.75;5016746;28;45421;-73
2021/09/22 06:11:04;;;;;;;;;41.75;34.25;;;;;14.41;100.00;102586.31;5017131;28;45302;-74
2021/09/22 06:13:31;;;;;;;;;41.00;34.00;;;;;14.57;100.00;102607.38;5017311;28;45515;-73
2021/09/22 06:15:56;;;;;;;;;46.50;32.75;;;;;14.63;100.00;102609.97;5016807;28;46591;-71
2021/09/22 06:18:22;;;;;;;;;42.50;34.50;;;;;14.73;100.00;102622.25;5017012;28;45384;-71
2021/09/22 06:20:47;;;;;;;;;40.25;36.00;;;;;14.80;100.00;102623.97;5016487;28;45345;-71
2021/09/22 06:23:14;;;;;;;;;41.00;34.00;;;;;14.84;100.00;102622.22;5016764;28;45361;-71
2021/09/22 06:29:01;;;;;;;;;42.75;34.00;;;;;15.02;100.00;102638.84;5016766;28;45734;-73
2021/09/22 06:31:26;;;;;;;;;40.75;33.75;;;;;14.99;100.00;102630.09;5017077;28;45358;-73
2021/09/22 06:33:52;;;;;;;;;45.75;36.00;;;;;15.02;100.00;102628.31;5017476;28;45278;-72
2021/09/22 06:36:18;;;;;;;;;38.50;33.25;;;;;15.06;100.00;102631.81;5016842;28;45365;-72
2021/09/22 06:38:43;;;;;;;;;40.25;33.75;;;;;15.06;100.00;102629.19;5017045;28;45236;-73
2021/09/22 06:44:30;;;;;;;;;50.00;34.25;;;;;15.22;100.00;102627.41;5017038;28;45333;-72
2021/09/22 06:46:56;;;;;;;;;35.50;30.50;;;;;15.32;100.00;102629.09;5016592;28;45344;-73
2021/09/22 06:49:21;;;;;;;;;39.00;34.00;;;;;15.36;100.00;102620.31;5016697;28;45317;-72
2021/09/22 06:51:46;;;;;;;;;40.50;34.00;;;;;15.52;100.00;102629.91;5016696;28;45960;-73
2021/09/22 06:54:12;;;;;;;;;39.75;33.75;;;;;15.59;100.00;102634.28;5017289;28;45280;-73
2021/09/22 06:56:37;;;;;;;;;38.75;32.75;;;;;15.65;100.00;102627.25;5016690;28;46245;-73
2021/09/22 06:59:02;;;;;;;;;36.25;33.25;;;;;15.71;100.00;102627.22;5016456;28;45287;-73
2021/09/22 07:01:28;;;;;;;;;39.75;33.00;;;;;15.78;100.00;102634.19;5016823;28;45344;-73
2021/09/22 07:03:53;;;;;;;;;36.50;27.50;;;;;15.83;100.00;102625.38;5016960;28;45388;-73
2021/09/22 07:06:19;;;;;;;;;33.75;28.75;;;;;15.96;100.00;102635.84;5016493;28;45211;-73
2021/09/22 07:08:44;;;;;;;;;32.25;29.50;;;;;15.96;100.00;102626.19;5016560;28;45256;-73
2021/09/22 07:14:31;;;;;;;;;45.25;33.25;;;;;16.24;100.00;102640.91;5016584;28;45243;-73
2021/09/22 07:16:56;;;;;;;;;37.00;33.50;;;;;16.36;100.00;102639.97;5016408;28;45366;-73
2021/09/22 07:19:22;;;;;;;;;39.25;32.25;;;;;16.51;100.00;102653.00;5016461;28;45421;-74
2021/09/22 07:21:47;;;;;;;;;36.00;33.00;;;;;16.58;100.00;102635.41;5016710;28;45315;-73
2021/09/22 07:24:12;;;;;;;;;31.50;28.25;;;;;16.74;100.00;102650.19;5016646;28;45428;-73
2021/09/22 07:26:38;;;;;;;;;48.25;33.75;;;;;16.85;100.00;102650.13;5016281;28;46458;-73
2021/09/22 07:29:05;;;;;;;;;37.00;32.75;;;;;16.99;100.00;102644.72;5016089;28;45375;-73
2021/09/22 07:31:31;;;;;;;;;42.50;33.50;;;;;17.21;100.00;102656.78;5016163;28;45381;-73
2021/09/22 07:33:56;;;;;;;;;40.25;33.25;;;;;17.34;100.00;102658.38;5016412;28;45467;-74
2021/09/22 07:36:22;;;;;;;;;38.50;33.75;;;;;17.42;100.00;102639.78;5015975;28;47288;-73
2021/09/22 07:38:48;;;;;;;;;37.00;32.00;;;;;17.57;100.00;102639.59;5018779;28;45690;-72
2021/09/22 07:44:35;;;;;;;;;42.75;33.50;;;;;18.04;100.00;102657.50;5019641;28;45289;-72
2021/09/22 07:47:00;;;;;;;;;32.75;30.75;;;;;18.25;100.00;102663.34;5019133;28;45280;-73
2021/09/22 07:49:25;;;;;;;;;35.25;30.50;;;;;18.42;100.00;102666.63;5019475;28;45278;-73
2021/09/22 07:51:51;;;;;;;;;40.75;31.50;;;;;18.64;100.00;102673.34;5019330;28;45278;-73
2021/09/22 07:54:16;;;;;;;;;36.00;33.00;;;;;18.82;100.00;102663.34;5019371;28;45345;-71
2021/09/22 07:56:42;;;;;;;;;36.00;29.50;;;;;19.06;100.00;102665.53;5018717;28;46455;-72
2021/09/22 07:59:07;;;;;;;;;40.00;31.75;;;;;19.27;100.00;102665.13;5018918;28;45315;-71
2021/09/22 08:01:32;;;;;;;;;41.25;34.25;;;;;19.52;100.00;102660.19;5001255;28;45272;-73
2021/09/22 08:03:58;;;;;;;;;35.50;31.75;;;;;19.77;100.00;102643.81;5019223;28;45243;-72
2021/09/22 08:06:23;;;;;;;;;34.00;32.00;;;;;20.05;100.00;102641.38;5018796;28;46163;-74
2021/09/22 08:08:50;;;;;;;;;37.75;31.00;;;;;20.28;100.00;102647.00;5018879;28;45388;-73
2021/09/22 08:14:37;;;;;;;;;36.00;29.50;;;;;20.91;100.00;102654.28;5019276;28;45392;-73
2021/09/22 08:17:03;;;;;;;;;35.75;30.50;;;;;21.19;100.00;102661.50;5018771;28;45396;-73
2021/09/22 08:19:29;;;;;;;;;35.50;30.75;;;;;21.44;100.00;102653.72;5018618;28;45746;-74
2021/09/22 08:21:55;;;;;;;;;38.25;29.75;;;;;21.70;100.00;102661.81;5018726;28;45325;-73
2021/09/22 08:31:06;;;;;;;;;33.00;29.50;;;;;22.69;100.00;102655.13;5018543;28;45605;-73
2021/09/22 08:33:31;;;;;;;;;32.00;29.50;;;;;22.89;100.00;102664.19;5018989;28;45339;-75
2021/09/22 08:35:57;;;;;;;;;36.25;30.00;;;;;23.14;100.00;102658.84;5000899;28;45348;-74
2021/09/22 08:38:22;;;;;;;;;34.50;31.00;;;;;23.59;100.00;102659.91;5018273;28;47379;-73
2021/09/22 08:40:47;;;;;;;;;36.75;31.75;;;;;24.06;100.00;102664.25;5018832;28;45207;-73
2021/09/22 08:43:13;;;;;;;;;41.00;34.00;;;;;24.43;100.00;102650.25;5018634;28;45247;-74
2021/09/22 08:45:39;;;;;;;;;34.50;30.25;;;;;24.79;100.00;102659.47;5018625;28;45352;-73
2021/09/22 08:48:05;;;;;;;;;36.75;33.00;;;;;25.15;100.00;102663.22;5018414;28;45612;-72
2021/09/22 08:50:30;;;;;;;;;34.25;31.25;;;;;25.50;100.00;102669.63;5018636;28;45451;-73
2021/09/22 08:52:56;;;;;;;;;37.50;31.00;;;;;25.80;100.00;102664.72;5018468;28;45388;-73
2021/09/22 08:55:22;;;;;;;;;30.75;28.75;;;;;26.24;100.00;102665.19;5018684;28;45329;-72
2021/09/22 08:57:47;;;;;;;;;31.75;28.00;;;;;26.61;100.00;102659.84;5018130;28;46103;-72
2021/09/22 09:00:14;;;;;;;;;36.25;31.00;;;;;27.00;100.00;102670.34;5018058;28;45354;-72
2021/09/22 09:02:43;;;;;;;;;32.50;27.50;;;;;27.47;100.00;102665.13;5018472;28;45270;-73
2021/09/22 09:05:11;;;;;;;;;30.50;28.25;;;;;28.02;100.00;102662.03;5018405;28;45239;-72
2021/09/22 09:07:47;;;;;;;;;31.00;29.25;;;;;28.61;100.00;102642.47;5017789;28;47003;-72
2021/09/22 09:10:13;;;;;;;;;30.00;27.50;;;;;29.30;98.29;102659.75;5017882;28;45341;-72
2021/09/22 09:12:38;;;;;;;;;32.25;29.50;;;;;29.97;95.04;102649.22;5018265;28;45394;-73
2021/09/22 09:15:12;;;;;;;;;30.75;29.00;;;;;30.62;92.52;102662.84;5018103;28;45255;-71
2021/09/22 09:17:49;;;;;;;;;32.50;29.00;;;;;31.22;88.91;102652.31;5017837;28;46720;-70
2021/09/22 09:20:23;;;;;;;;;33.00;28.75;;;;;31.78;85.21;102658.19;5017724;28;45516;-72
2021/09/22 09:23:06;;;;;;;;;35.50;29.75;;;;;32.13;82.13;102655.53;5018042;28;45267;-73
2021/09/22 09:26:02;;;;;;;;;32.50;28.50;;;;;32.17;79.36;102648.06;5018384;28;45366;-73
2021/09/22 09:28:31;;;;;;;;;33.25;29.50;;;;;32.02;81.00;102643.81;5017640;28;46099;-74
2021/09/22 09:31:01;;;;;;;;;30.50;29.00;;;;;31.78;79.44;102649.22;5017565;28;45290;-73
2021/09/22 09:33:48;;;;;;;;;29.25;26.75;;;;;31.33;79.52;102644.31;5017758;28;45367;-73
2021/09/22 09:36:24;;;;;;;;;26.50;24.00;;;;;30.94;78.04;102647.09;5017997;28;45400;-73
2021/09/22 09:38:56;;;;;;;;;32.25;29.75;;;;;30.61;78.65;102648.50;5017772;28;46480;-73
2021/09/22 09:41:26;;;;;;;;;27.00;24.50;;;;;30.45;79.23;102643.25;5017388;28;45600;-73
2021/09/22 09:43:52;;;;;;;;;24.75;21.50;;;;;30.53;78.45;102648.09;5017436;28;45300;-73
2021/09/22 09:46:23;;;;;;;;;32.50;27.75;;;;;30.66;76.52;102649.03;5017642;28;45270;-73
2021/09/22 09:49:05;;;;;;;;;29.75;28.50;;;;;30.86;76.01;102646.78;5017125;28;47364;-74
2021/09/22 09:51:31;;;;;;;;;30.75;27.75;;;;;31.29;75.19;102648.22;5017447;28;45631;-72
2021/09/22 09:54:14;;;;;;;;;31.50;28.00;;;;;31.98;73.50;102638.66;5017476;28;45356;-73
2021/09/22 09:56:39;;;;;;;;;27.25;26.00;;;;;32.58;72.04;102624.13;5017123;28;45467;-72
2021/09/22 09:59:05;;;;;;;;;31.00;26.25;;;;;33.31;70.61;102622.91;5016899;28;47022;-72
2021/09/22 10:01:42;;;;;;;;;31.50;26.50;;;;;34.09;68.81;102628.19;5016597;28;45435;-72
2021/09/22 10:04:09;;;;;;;;;26.25;25.00;;;;;34.82;67.42;102629.16;5017435;28;45348;-72
2021/09/22 10:06:35;;;;;;;;;31.25;27.25;;;;;35.45;65.99;102637.22;5017208;28;45215;-74
2021/09/22 10:09:00;;;;;;;;;25.00;23.25;;;;;35.89;62.85;102630.47;4999104;28;47145;-73
2021/09/22 10:11:26;;;;;;;;;22.75;21.50;;;;;36.16;62.41;102611.56;5016863;28;45266;-73
2021/09/22 10:13:52;;;;;;;;;24.25;21.50;;;;;36.63;59.50;102627.16;5017461;28;45323;-73
2021/09/22 10:16:20;;;;;;;;;25.25;25.00;;;;;37.01;57.98;102624.34;5017399;28;45281;-73
2021/09/22 10:18:48;;;;;;;;;27.00;24.00;;;;;37.46;58.05;102622.72;5017025;28;46431;-72
2021/09/22 10:21:18;;;;;;;;;22.50;21.00;;;;;37.87;56.18;102608.56;5017154;28;45459;-72
2021/09/22 10:23:44;;;;;;;;;20.75;19.75;;;;;38.40;54.55;102607.66;5017256;28;45427;-72
2021/09/22 10:26:10;;;;;;;;;23.50;21.25;;;;;38.93;52.73;102614.88;5017206;28;45355;-73
2021/09/22 10:28:44;;;;;;;;;22.25;20.00;;;;;39.47;51.52;102607.25;5016790;28;46929;-72
2021/09/22 10:31:23;;;;;;;;;24.25;21.50;;;;;39.95;50.09;102595.59;5016848;28;45613;-73
2021/09/22 10:33:48;;;;;;;;;20.00;19.00;;;;;40.21;49.24;102600.88;5016926;28;45345;-72
2021/09/22 10:36:16;;;;;;;;;19.25;18.00;;;;;40.45;47.76;102586.34;5017435;28;45334;-73
2021/09/22 10:38:41;;;;;;;;;16.50;15.75;;;;;40.84;45.33;102597.41;5016932;28;46466;-71
2021/09/22 10:41:08;;;;;;;;;17.00;14.00;;;;;41.07;46.65;102570.06;5016952;28;45323;-73
2021/09/22 10:43:43;;;;;;;;;16.75;16.50;;;;;41.36;44.01;102568.56;5017158;28;45382;-72
2021/09/22 10:46:12;;;;;;;;;17.00;16.50;;;;;41.67;41.50;102555.72;5017291;28;45435;-72
2021/09/22 10:48:57;;;;;;;;;16.25;15.50;;;;;42.21;42.39;102569.31;5016761;28;45454;-72
2021/09/22 10:51:31;;;;;;;;;15.75;14.25;;;;;42.58;38.48;102556.63;5016829;28;45499;-72
2021/09/22 10:54:06;;;;;;;;;16.50;14.75;;;;;42.92;37.81;102564.28;5016829;28;45373;-73
2021/09/22 10:56:32;;;;;;;;;15.25;15.00;;;;;43.25;37.02;102557.31;5017118;28;45377;-72
2021/09/22 10:59:02;;;;;;;;;11.75;11.50;;;;;43.40;36.51;102555.38;5016460;28;46372;-72
2021/09/22 11:01:48;;;;;;;;;9.75;9.75;;;;;43.56;36.89;102564.44;5016859;28;45315;-71
2021/09/22 11:04:14;;;;;;;;;13.50;10.75;;;;;43.56;35.43;102554.28;5016737;28;45445;-72
2021/09/22 11:06:45;;;;;;;;;10.50;9.25;;;;;43.73;35.25;102548.53;5016716;28;45293;-72
2021/09/22 11:09:11;;;;;;;;;9.50;9.50;;;;;43.84;34.43;102546.09;5016179;28;46725;-72
2021/09/22 11:12:03;;;;;;;;;12.75;10.00;;;;;43.75;33.64;102546.44;5016338;28;45377;-71
2021/09/22 11:14:45;;;;;;;;;12.00;11.25;;;;;43.90;34.38;102545.28;5020163;28;45298;-73
2021/09/22 11:17:15;;;;;;;;;11.25;10.75;;;;;44.12;33.00;102539.78;5020227;28;45381;-71
2021/09/22 11:19:44;;;;;;;;;11.25;10.50;;;;;44.39;33.25;102535.31;5019436;28;46398;-73
2021/09/22 11:22:19;;;;;;;;;14.75;13.25;;;;;44.52;32.69;102519.72;5019956;28;45369;-72
2021/09/22 11:24:45;;;;;;;;;14.00;12.50;;;;;44.68;31.78;102532.31;5020248;28;45465;-72
2021/09/22 11:27:16;;;;;;;;;11.75;11.25;;;;;44.71;32.13;102528.28;5019925;28;45333;-72
2021/09/22 11:29:47;;;;;;;;;10.00;9.75;;;;;44.73;32.04;102518.75;5019530;28;47254;-72
2021/09/22 11:32:27;;;;;;;;;10.75;10.50;;;;;44.70;31.81;102518.31;5019694;28;45341;-72
2021/09/22 11:34:58;;;;;;;;;12.75;11.75;;;;;44.40;30.79;102521.31;5019901;28;45268;-73
2021/09/22 11:37:32;;;;;;;;;9.00;8.50;;;;;43.86;31.17;102488.91;5020050;28;45421;-73
2021/09/22 11:43:14;;;;;;;;;9.50;9.50;;;;;43.31;31.33;102512.53;4958373;28;45723;-72
2021/09/22 11:45:45;;;;;;;;;8.00;7.75;;;;;43.17;31.61;102509.81;4958505;28;45305;-72
2021/09/22 11:48:17;;;;;;;;;8.50;8.50;;;;;43.04;31.74;102505.88;4958700;28;45424;-72
2021/09/22 11:50:47;;;;;;;;;8.75;7.75;;;;;43.00;31.59;102507.28;4958279;28;45481;-73
2021/09/22 11:53:33;;;;;;;;;7.50;7.50;;;;;42.82;30.26;102514.25;4958315;28;45520;-74
2021/09/22 11:59:30;;;;;;;;;7.00;7.00;;;;;42.59;30.91;102504.22;4957998;28;45440;-73
2021/09/22 12:01:56;;;;;;;;;8.25;8.00;;;;;42.65;30.52;102508.94;4958125;28;45503;-73
2021/09/22 12:04:21;;;;;;;;;6.75;6.75;;;;;42.75;30.91;102497.63;4958427;28;45397;-73
2021/09/22 12:06:47;;;;;;;;;9.00;8.00;;;;;42.86;29.87;102483.41;4958216;28;45470;-73
2021/09/22 12:09:12;;;;;;;;;7.25;6.25;;;;;42.99;29.52;102483.59;4958496;28;45484;-74
2021/09/22 12:15:00;;;;;;;;;8.00;8.00;;;;;43.63;29.47;102472.63;4957873;28;45408;-74
2021/09/22 12:17:31;;;;;;;;;7.50;7.25;;;;;43.82;27.82;102451.00;4958425;28;45412;-74
2021/09/22 12:19:59;;;;;;;;;8.00;6.75;;;;;44.50;28.18;102458.44;4988219;28;45394;-73
2021/09/22 12:22:31;;;;;;;;;7.00;7.00;;;;;45.31;27.86;102474.22;5018727;28;46160;-73
2021/09/22 12:24:57;;;;;;;;;6.00;6.00;;;;;46.03;27.35;102459.59;5018324;28;45480;-73